Time;durP1;ratioP1;P1;durP2;ratioP2;P2;SDS_P1;SDS_P2;PMS_P1;PMS_P2;Temp;Humidity;BMP_temperature;BMP_pressure;BME280_temperature;BME280_humidity;BME280_pressure;Samples;Min_cycle;Max_cycle;Signal;HPM_P1;HPM_P2
2022/05/30 00:01:05;;;;;;;16.70;5.18;;;;;;;;;;5095243;28;20040;-73
2022/05/30 00:04:09;;;;;;;;;;;;;;;;;;5095889;28;20044;-74
2022/05/30 00:07:12;;;;;;;19.08;5.30;;;;;;;;;;5097128;28;19931;-75
2022/05/30 00:10:19;;;;;;;16.63;6.05;;;;;;;;;;5096800;28;20036;-74
2022/05/30 00:13:24;;;;;;;25.60;5.97;;;;;;;;;;5096672;28;20143;-74
2022/05/30 00:16:29;;;;;;;21.88;5.00;;;;;;;;;;5096919;28;20044;-74
2022/05/30 00:19:36;;;;;;;15.95;5.63;;;;;;;;;;5093867;28;20177;-74
2022/05/30 00:22:40;;;;;;;19.85;5.53;;;;;;;;;;5095224;28;20039;-74
2022/05/30 00:25:45;;;;;;;15.52;4.80;;;;;;;;;;5093905;28;20590;-74
2022/05/30 00:28:49;;;;;;;15.35;5.53;;;;;;;;;;5093890;28;20036;-74
2022/05/30 00:31:53;;;;;;;20.23;5.93;;;;;;;;;;5093814;28;20048;-74
2022/05/30 00:34:57;;;;;;;15.82;5.82;;;;;;;;;;5092986;28;20047;-74
2022/05/30 00:38:03;;;;;;;18.25;5.60;;;;;;;;;;5093460;28;20040;-74
2022/05/30 00:41:07;;;;;;;16.52;5.60;;;;;;;;;;5094151;28;20049;-74
2022/05/30 00:44:12;;;;;;;21.00;5.93;;;;;;;;;;5094036;28;20133;-74
2022/05/30 00:47:19;;;;;;;17.83;6.03;;;;;;;;;;5093053;28;20044;-74
2022/05/30 00:50:23;;;;;;;26.25;6.20;;;;;;;;;;5094112;28;20040;-74
2022/05/30 00:53:27;;;;;;;19.08;5.40;;;;;;;;;;5092815;28;20036;-74
2022/05/30 00:56:34;;;;;;;14.70;5.82;;;;;;;;;;5093340;28;20059;-74
2022/05/30 00:59:39;;;;;;;15.73;6.25;;;;;;;;;;5092372;28;20036;-74
2022/05/30 01:02:43;;;;;;;14.30;5.78;;;;;;;;;;5093127;28;20045;-74
2022/05/30 01:09:12;;;;;;;23.67;6.53;;;;;;;;;;5092030;28;20032;-73
2022/05/30 01:12:17;;;;;;;17.90;5.82;;;;;;;;;;5091948;28;20044;-74
2022/05/30 01:15:24;;;;;;;16.95;6.38;;;;;;;;;;5091516;28;20071;-74
2022/05/30 01:18:32;;;;;;;20.60;5.85;;;;;;;;;;5091333;28;20028;-73
2022/05/30 01:21:51;;;;;;;21.42;6.47;;;;;;;;;;5092276;28;20525;-74
2022/05/30 01:24:56;;;;;;;18.83;5.95;;;;;;;;;;5091640;28;20047;-73
2022/05/30 01:28:29;;;;;;;18.33;6.20;;;;;;;;;;5091429;28;20032;-74
2022/05/30 01:31:34;;;;;;;15.40;6.82;;;;;;;;;;5091470;28;20393;-73
2022/05/30 01:34:39;;;;;;;16.73;6.65;;;;;;;;;;5091129;28;20044;-74
2022/05/30 01:37:43;;;;;;;20.45;6.78;;;;;;;;;;5091148;28;20047;-73
2022/05/30 01:40:48;;;;;;;15.05;6.55;;;;;;;;;;5091330;28;20054;-74
2022/05/30 01:43:53;;;;;;;23.25;6.63;;;;;;;;;;5091019;28;20056;-74
2022/05/30 01:46:57;;;;;;;13.85;5.88;;;;;;;;;;5091242;28;20040;-74
2022/05/30 01:50:01;;;;;;;14.15;6.13;;;;;;;;;;5078833;28;20044;-74
2022/05/30 01:53:12;;;;;;;18.27;6.20;;;;;;;;;;5091009;28;20534;-74
2022/05/30 01:56:36;;;;;;;22.63;6.55;;;;;;;;;;5086027;28;20032;-74
2022/05/30 01:59:41;;;;;;;12.15;5.90;;;;;;;;;;5090942;28;20032;-74
2022/05/30 02:03:01;;;;;;;16.70;5.88;;;;;;;;;;5091175;28;20040;-74
2022/05/30 02:06:05;;;;;;;19.20;6.80;;;;;;;;;;5091200;28;20044;-74
2022/05/30 02:09:09;;;;;;;21.60;5.97;;;;;;;;;;5091093;28;20403;-74
2022/05/30 02:12:13;;;;;;;15.23;6.50;;;;;;;;;;5090847;28;20036;-74
2022/05/30 02:15:23;;;;;;;14.10;5.88;;;;;;;;;;5090634;28;20053;-74
2022/05/30 02:18:31;;;;;;;21.75;7.15;;;;;;;;;;5079516;28;20475;-74
2022/05/30 02:21:36;;;;;;;13.20;5.60;;;;;;;;;;5091072;28;20028;-74
2022/05/30 02:24:40;;;;;;;18.65;6.22;;;;;;;;;;5090676;28;20036;-74
2022/05/30 02:27:45;;;;;;;17.52;5.85;;;;;;;;;;5091357;28;20055;-74
2022/05/30 02:30:49;;;;;;;16.45;5.18;;;;;;;;;;5090538;28;20039;-74
2022/05/30 02:37:16;;;;;;;13.57;5.53;;;;;;;;;;5091286;28;20048;-74
2022/05/30 02:40:21;;;;;;;23.52;6.90;;;;;;;;;;5090396;28;20039;-74
2022/05/30 02:43:46;;;;;;;16.98;5.80;;;;;;;;;;5091059;28;20065;-73
2022/05/30 02:46:52;;;;;;;18.05;5.60;;;;;;;;;;5090706;28;20039;-73
2022/05/30 02:49:57;;;;;;;10.88;5.30;;;;;;;;;;5078740;28;20047;-73
2022/05/30 02:53:01;;;;;;;14.95;5.28;;;;;;;;;;5091329;28;20028;-73
2022/05/30 02:56:25;;;;;;;20.50;5.88;;;;;;;;;;5091309;28;20520;-73
2022/05/30 02:59:30;;;;;;;13.25;5.57;;;;;;;;;;5090446;28;20503;-73
2022/05/30 03:02:43;;;;;;;21.75;6.80;;;;;;;;;;5093922;28;20044;-73
2022/05/30 03:05:48;;;;;;;21.10;7.10;;;;;;;;;;5094459;28;20040;-73
2022/05/30 03:08:53;;;;;;;21.38;7.68;;;;;;;;;;5094406;28;20036;-73
2022/05/30 03:12:16;;;;;;;116.30;8.98;;;;;;;;;;5094401;28;20044;-73
2022/05/30 03:15:20;;;;;;;16.80;6.07;;;;;;;;;;5093819;28;20071;-73
2022/05/30 03:18:25;;;;;;;47.65;7.05;;;;;;;;;;5093760;28;20043;-73
2022/05/30 03:21:30;;;;;;;19.10;5.97;;;;;;;;;;5082497;28;20040;-73
2022/05/30 03:24:34;;;;;;;15.18;5.18;;;;;;;;;;5094085;28;20032;-74
2022/05/30 03:27:39;;;;;;;17.45;4.40;;;;;;;;;;5094001;28;20043;-73
2022/05/30 03:30:44;;;;;;;18.80;7.60;;;;;;;;;;5093984;28;20047;-73
2022/05/30 03:33:48;;;;;;;13.27;4.20;;;;;;;;;;5093847;28;20050;-73
2022/05/30 03:36:52;;;;;;;19.38;5.20;;;;;;;;;;5093963;28;20052;-73
2022/05/30 03:40:12;;;;;;;14.05;3.75;;;;;;;;;;5093711;28;20032;-73
2022/05/30 03:43:35;;;;;;;66.13;6.82;;;;;;;;;;5094302;28;20051;-73
2022/05/30 03:46:40;;;;;;;16.33;4.80;;;;;;;;;;5093624;28;20337;-73
2022/05/30 03:49:44;;;;;;;15.18;5.35;;;;;;;;;;5094438;28;20043;-74
2022/05/30 03:52:49;;;;;;;23.33;6.10;;;;;;;;;;5093350;28;20388;-74
2022/05/30 03:55:55;;;;;;;16.02;6.55;;;;;;;;;;5093597;28;20060;-74
2022/05/30 03:59:00;;;;;;;36.53;8.73;;;;;;;;;;5093277;28;20036;-74
2022/05/30 04:02:05;;;;;;;41.05;7.55;;;;;;;;;;5093510;28;20503;-74
2022/05/30 04:05:09;;;;;;;32.20;7.88;;;;;;;;;;5094060;28;20368;-74
2022/05/30 04:08:14;;;;;;;32.78;7.00;;;;;;;;;;5092989;28;20050;-74
2022/05/30 04:11:53;;;;;;;49.20;7.82;;;;;;;;;;5093803;28;20039;-73
2022/05/30 04:15:21;;;;;;;20.27;5.97;;;;;;;;;;5093801;28;20052;-74
2022/05/30 04:18:25;;;;;;;16.70;6.47;;;;;;;;;;5092912;28;20381;-74
2022/05/30 04:21:30;;;;;;;24.73;6.82;;;;;;;;;;5092922;28;20043;-74
2022/05/30 04:24:34;;;;;;;31.77;7.97;;;;;;;;;;5092782;28;20043;-74
2022/05/30 04:27:42;;;;;;;23.23;6.32;;;;;;;;;;5092619;28;20047;-74
2022/05/30 04:30:46;;;;;;;21.92;7.22;;;;;;;;;;5092987;28;20041;-74
2022/05/30 04:33:51;;;;;;;25.30;6.97;;;;;;;;;;5092578;28;20036;-74
2022/05/30 04:36:56;;;;;;;27.60;7.45;;;;;;;;;;5092624;28;20039;-74
2022/05/30 04:40:01;;;;;;;18.45;6.82;;;;;;;;;;5092456;28;20028;-74
2022/05/30 04:43:26;;;;;;;20.80;7.45;;;;;;;;;;5087383;28;20047;-74
2022/05/30 04:46:53;;;;;;;17.92;6.68;;;;;;;;;;5093149;28;20032;-74
2022/05/30 04:49:58;;;;;;;29.75;6.82;;;;;;;;;;5092411;28;20048;-74
2022/05/30 04:53:02;;;;;;;27.67;6.93;;;;;;;;;;5092613;28;20051;-74
2022/05/30 04:56:25;;;;;;;34.15;6.47;;;;;;;;;;5093012;28;20067;-74
2022/05/30 04:59:42;;;;;;;30.92;6.03;;;;;;;;;;5092325;28;20052;-74
2022/05/30 05:02:48;;;;;;;104.00;12.45;;;;;;;;;;5080260;28;20040;-74
2022/05/30 05:05:59;;;;;;;37.10;7.15;;;;;;;;;;5092281;28;20047;-74
2022/05/30 05:09:09;;;;;;;33.83;6.80;;;;;;;;;;5092013;28;20041;-74
2022/05/30 05:12:36;;;;;;;43.42;6.13;;;;;;;;;;5092740;28;20039;-74
2022/05/30 05:15:59;;;;;;;32.75;5.18;;;;;;;;;;5092773;28;20039;-74
2022/05/30 05:19:06;;;;;;;21.60;5.20;;;;;;;;;;5091654;28;20039;-73
2022/05/30 05:22:14;;;;;;;25.85;5.90;;;;;;;;;;5091878;28;20365;-73
2022/05/30 05:25:19;;;;;;;19.75;5.40;;;;;;;;;;5091661;28;20039;-74
2022/05/30 05:28:46;;;;;;;16.30;5.45;;;;;;;;;;5091366;28;20039;-73
2022/05/30 05:31:51;;;;;;;23.27;5.35;;;;;;;;;;5079586;28;20024;-72
2022/05/30 05:34:56;;;;;;;36.63;7.40;;;;;;;;;;5091083;28;20044;-68
2022/05/30 05:38:00;;;;;;;31.63;5.57;;;;;;;;;;5091287;28;20423;-68
2022/05/30 05:41:43;;;;;;;19.00;4.93;;;;;;;;;;5058957;28;20051;-68
2022/05/30 05:44:50;;;;;;;31.48;5.63;;;;;;;;;;5090605;28;20055;-69
2022/05/30 05:47:54;;;;;;;16.88;4.82;;;;;;;;;;5092014;28;20403;-68
2022/05/30 05:50:59;;;;;;;39.40;5.60;;;;;;;;;;5091161;28;20047;-67
2022/05/30 05:54:03;;;;;;;26.17;4.38;;;;;;;;;;5090820;28;20412;-68
2022/05/30 05:57:09;;;;;;;27.08;5.10;;;;;;;;;;5090887;28;20566;-68
2022/05/30 06:00:23;;;;;;;18.25;4.25;;;;;;;;;;5090898;28;20063;-67
2022/05/30 06:03:29;;;;;;;116.78;9.15;;;;;;;;;;5090447;28;20049;-66
2022/05/30 06:06:52;;;;;;;18.42;4.22;;;;;;;;;;5091479;28;20503;-66
2022/05/30 06:10:05;;;;;;;14.05;3.58;;;;;;;;;;5090884;28;20058;-65
2022/05/30 06:13:20;;;;;;;28.73;4.60;;;;;;;;;;5090194;28;20495;-67
2022/05/30 06:16:29;;;;;;;19.45;4.47;;;;;;;;;;5090737;28;20040;-66
2022/05/30 06:19:34;;;;;;;22.20;5.55;;;;;;;;;;5091471;28;20040;-67
2022/05/30 06:22:38;;;;;;;25.35;4.80;;;;;;;;;;5090248;28;20040;-66
2022/05/30 06:25:57;;;;;;;18.00;4.75;;;;;;;;;;5089924;28;20032;-68
2022/05/30 06:29:15;;;;;;;16.13;4.93;;;;;;;;;;5090110;28;20053;-66
2022/05/30 06:32:21;;;;;;;24.52;4.72;;;;;;;;;;5090272;28;20048;-65
2022/05/30 06:35:40;;;;;;;22.00;6.55;;;;;;;;;;5089246;28;20507;-67
2022/05/30 06:38:47;;;;;;;16.35;4.22;;;;;;;;;;5089619;28;20040;-67
2022/05/30 06:41:58;;;;;;;26.75;4.97;;;;;;;;;;5090954;28;20044;-67
2022/05/30 06:45:03;;;;;;;18.13;4.18;;;;;;;;;;5089995;28;20056;-68
2022/05/30 06:48:27;;;;;;;19.73;4.00;;;;;;;;;;5090916;28;20407;-67
2022/05/30 06:51:51;;;;;;;19.88;4.25;;;;;;;;;;5091117;28;20040;-67
2022/05/30 06:54:55;;;;;;;23.60;6.05;;;;;;;;;;5090177;28;20044;-67
2022/05/30 06:58:12;;;;;;;27.52;6.32;;;;;;;;;;5090195;28;20047;-68
2022/05/30 07:01:21;;;;;;;24.88;5.22;;;;;;;;;;5090163;28;20392;-67
2022/05/30 07:04:44;;;;;;;30.55;5.45;;;;;;;;;;5090753;28;20436;-67
2022/05/30 07:08:07;;;;;;;31.13;6.78;;;;;;;;;;5090105;28;20514;-67
2022/05/30 07:11:38;;;;;;;29.33;6.10;;;;;;;;;;5082111;28;20040;-68
2022/05/30 07:14:44;;;;;;;24.52;5.40;;;;;;;;;;5089466;28;20495;-69
2022/05/30 07:17:50;;;;;;;24.83;4.60;;;;;;;;;;5089578;28;20036;-68
2022/05/30 07:20:56;;;;;;;61.78;8.20;;;;;;;;;;5088444;28;20047;-69
2022/05/30 07:24:06;;;;;;;30.85;5.82;;;;;;;;;;5090137;28;20032;-66
2022/05/30 07:27:30;;;;;;;17.73;4.70;;;;;;;;;;5089921;28;20048;-66
2022/05/30 07:30:53;;;;;;;22.30;5.10;;;;;;;;;;5090091;28;20035;-67
2022/05/30 07:34:18;;;;;;;24.10;6.53;;;;;;;;;;5084625;28;20044;-67
2022/05/30 07:37:42;;;;;;;28.20;5.78;;;;;;;;;;5089544;28;20040;-67
2022/05/30 07:41:01;;;;;;;25.80;5.03;;;;;;;;;;5089663;28;20043;-68
2022/05/30 07:44:31;;;;;;;19.80;5.77;;;;;;;;;;5090338;28;20055;-68
2022/05/30 07:47:55;;;;;;;25.98;5.43;;;;;;;;;;5090991;28;20039;-69
2022/05/30 07:51:18;;;;;;;20.05;5.00;;;;;;;;;;5093978;28;20051;-71
2022/05/30 07:54:41;;;;;;;28.55;4.68;;;;;;;;;;5093599;28;20048;-69
2022/05/30 07:57:55;;;;;;;31.80;5.68;;;;;;;;;;5093212;28;20072;-66
2022/05/30 08:01:03;;;;;;;36.97;6.03;;;;;;;;;;5093075;28;20068;-68
2022/05/30 08:04:13;;;;;;;20.23;4.75;;;;;;;;;;5094190;28;20357;-66
2022/05/30 08:07:24;;;;;;;27.35;4.88;;;;;;;;;;5092623;28;20047;-66
2022/05/30 08:10:41;;;;;;;28.10;5.28;;;;;;;;;;5092362;28;20039;-66
2022/05/30 08:13:46;;;;;;;28.27;5.55;;;;;;;;;;5093693;28;20040;-66
2022/05/30 08:16:50;;;;;;;22.25;5.43;;;;;;;;;;5092911;28;20058;-67
2022/05/30 08:19:57;;;;;;;27.73;4.70;;;;;;;;;;5092427;28;20041;-67
2022/05/30 08:23:07;;;;;;;18.05;4.75;;;;;;;;;;5092937;28;20051;-67
2022/05/30 08:26:15;;;;;;;27.50;4.88;;;;;;;;;;5091762;28;20047;-69
2022/05/30 08:29:42;;;;;;;;;;;;;;;;;;5093751;28;20055;-66
2022/05/30 08:32:47;;;;;;;21.23;4.53;;;;;;;;;;5092388;28;20267;-66
2022/05/30 08:36:15;;;;;;;14.50;5.03;;;;;;;;;;5087339;28;20055;-66
2022/05/30 08:42:43;;;;;;;18.85;4.53;;;;;;;;;;5092654;28;20412;-67
2022/05/30 08:45:54;;;;;;;22.73;5.45;;;;;;;;;;5092819;28;20048;-68
2022/05/30 08:49:14;;;;;;;20.05;5.20;;;;;;;;;;5092344;28;20490;-67
2022/05/30 08:52:25;;;;;;;15.25;4.32;;;;;;;;;;5079559;28;20039;-68
2022/05/30 08:55:43;;;;;;;16.23;4.93;;;;;;;;;;5092184;28;20050;-67
2022/05/30 08:58:49;;;;;;;16.00;4.20;;;;;;;;;;5091504;28;20503;-67
2022/05/30 09:01:55;;;;;;;25.40;4.78;;;;;;;;;;5091983;28;20431;-67
2022/05/30 09:05:16;;;;;;;22.13;4.40;;;;;;;;;;5091866;28;20392;-68
2022/05/30 09:08:35;;;;;;;18.92;4.22;;;;;;;;;;5091761;28;20388;-68
2022/05/30 09:12:08;;;;;;;17.80;4.65;;;;;;;;;;5092377;28;20456;-68
2022/05/30 09:15:27;;;;;;;11.75;3.50;;;;;;;;;;5091251;28;20059;-67
2022/05/30 09:18:50;;;;;;;20.20;3.80;;;;;;;;;;5091421;28;20032;-68
2022/05/30 09:22:01;;;;;;;11.20;3.80;;;;;;;;;;5091575;28;20408;-67
2022/05/30 09:28:36;;;;;;;22.30;3.63;;;;;;;;;;5090909;28;20044;-67
2022/05/30 09:32:05;;;;;;;16.13;3.60;;;;;;;;;;5092221;28;20051;-66
2022/05/30 09:35:32;;;;;;;15.07;3.95;;;;;;;;;;5091917;28;20519;-65
2022/05/30 09:38:57;;;;;;;14.98;3.47;;;;;;;;;;5092257;28;20478;-66
2022/05/30 09:42:21;;;;;;;17.88;3.92;;;;;;;;;;5091167;28;20389;-66
2022/05/30 09:45:27;;;;;;;17.30;3.92;;;;;;;;;;5091154;28;20047;-66
2022/05/30 09:49:00;;;;;;;15.43;4.10;;;;;;;;;;5091577;28;20035;-66
2022/05/30 09:52:26;;;;;;;16.02;3.75;;;;;;;;;;5091472;28;20032;-65
2022/05/30 09:55:38;;;;;;;15.98;3.70;;;;;;;;;;5094509;28;20051;-65
2022/05/30 09:59:01;;;;;;;17.67;3.60;;;;;;;;;;5090703;28;20051;-65
2022/05/30 10:02:21;;;;;;;26.30;4.22;;;;;;;;;;5090793;28;20032;-66
2022/05/30 10:05:27;;;;;;;22.60;4.72;;;;;;;;;;5091579;28;20045;-65
2022/05/30 10:08:32;;;;;;;23.90;4.05;;;;;;;;;;5090518;28;20041;-66
2022/05/30 10:11:42;;;;;;;23.65;4.45;;;;;;;;;;5089978;28;20051;-66
2022/05/30 10:14:53;;;;;;;14.50;3.85;;;;;;;;;;5090153;28;20047;-64
2022/05/30 10:18:18;;;;;;;13.90;4.55;;;;;;;;;;5091290;28;20353;-65
2022/05/30 10:21:25;;;;;;;16.35;4.13;;;;;;;;;;5091061;28;20047;-65
2022/05/30 10:28:57;;;;;;;8.57;3.25;;;;;;;;;;5086368;28;20803;-67
2022/05/30 10:32:27;;;;;;;16.30;4.25;;;;;;;;;;5090167;28;20039;-67
2022/05/30 10:35:37;;;;;;;19.83;4.63;;;;;;;;;;5090337;28;20048;-69
2022/05/30 10:39:00;;;;;;;16.63;3.40;;;;;;;;;;5090218;28;20040;-67
2022/05/30 10:42:10;;;;;;;13.65;3.08;;;;;;;;;;5091124;28;20040;-68
2022/05/30 10:45:22;;;;;;;14.90;3.13;;;;;;;;;;5089974;28;20055;-67
2022/05/30 10:48:38;;;;;;;14.13;3.63;;;;;;;;;;5078214;28;20031;-67
2022/05/30 10:51:55;;;;;;;11.07;3.03;;;;;;;;;;5089834;28;20048;-68
2022/05/30 10:55:05;;;;;;;8.93;3.25;;;;;;;;;;5090356;28;20051;-66
2022/05/30 10:58:17;;;;;;;11.57;3.17;;;;;;;;;;5091242;28;20041;-66
2022/05/30 11:01:40;;;;;;;8.60;2.55;;;;;;;;;;5090287;28;20044;-67
2022/05/30 11:04:56;;;;;;;13.73;3.30;;;;;;;;;;5090289;28;20044;-65
2022/05/30 11:08:08;;;;;;;12.80;3.13;;;;;;;;;;5090758;28;20032;-67
2022/05/30 11:11:18;;;;;;;9.38;2.83;;;;;;;;;;5089723;28;20131;-66
2022/05/30 11:14:47;;;;;;;13.63;3.08;;;;;;;;;;5089680;28;20040;-66
2022/05/30 11:18:15;;;;;;;17.17;3.50;;;;;;;;;;5090521;28;20369;-65
2022/05/30 11:21:41;;;;;;;10.05;2.75;;;;;;;;;;5089653;28;20504;-66
2022/05/30 11:24:48;;;;;;;11.57;2.65;;;;;;;;;;5093542;28;20032;-66
2022/05/30 11:28:10;;;;;;;14.10;3.95;;;;;;;;;;5094308;28;20032;-66
2022/05/30 11:31:20;;;;;;;14.85;3.33;;;;;;;;;;5093538;28;20040;-68
2022/05/30 11:34:27;;;;;;;16.33;3.08;;;;;;;;;;5094412;28;20036;-66
2022/05/30 11:37:32;;;;;;;7.05;2.58;;;;;;;;;;5094538;28;20032;-68
2022/05/30 11:40:40;;;;;;;22.17;4.15;;;;;;;;;;5094166;28;20037;-67
2022/05/30 11:43:50;;;;;;;6.53;2.25;;;;;;;;;;5093364;28;20048;-66
2022/05/30 11:46:54;;;;;;;15.73;3.47;;;;;;;;;;5094090;28;20040;-64
2022/05/30 11:50:08;;;;;;;9.73;3.08;;;;;;;;;;5094172;28;20039;-66
2022/05/30 11:53:31;;;;;;;18.27;3.38;;;;;;;;;;5094334;28;20044;-67
2022/05/30 11:56:38;;;;;;;11.18;2.30;;;;;;;;;;5093804;28;20405;-66
2022/05/30 12:00:03;;;;;;;10.27;2.70;;;;;;;;;;5093845;28;20039;-67
2022/05/30 12:03:34;;;;;;;11.40;3.78;;;;;;;;;;5093998;28;20441;-66
2022/05/30 12:06:57;;;;;;;8.85;2.72;;;;;;;;;;5093656;28;20358;-66
2022/05/30 12:10:06;;;;;;;14.02;2.92;;;;;;;;;;5094099;28;20392;-67
2022/05/30 12:13:13;;;;;;;11.00;3.00;;;;;;;;;;5093979;28;20420;-67
2022/05/30 12:16:20;;;;;;;12.18;2.95;;;;;;;;;;5092701;28;20520;-67
2022/05/30 12:26:48;;;;;;;13.38;3.10;;;;;;;;;;5092294;28;20052;-66
2022/05/30 12:29:54;;;;;;;10.68;2.92;;;;;;;;;;5093630;28;20032;-67
2022/05/30 12:32:58;;;;;;;17.85;3.45;;;;;;;;;;5093130;28;20384;-67
2022/05/30 12:36:09;;;;;;;22.05;3.03;;;;;;;;;;5092313;28;20040;-70
2022/05/30 12:39:13;;;;;;;;;;;;;;;;;;5092933;28;20044;-67
2022/05/30 12:42:34;;;;;;;15.80;2.80;;;;;;;;;;5093174;28;20371;-69
2022/05/30 12:45:42;;;;;;;16.70;3.40;;;;;;;;;;5093120;28;20138;-67
2022/05/30 12:48:58;;;;;;;18.63;3.80;;;;;;;;;;5093294;28;20040;-67
2022/05/30 12:52:05;;;;;;;9.70;2.83;;;;;;;;;;5093087;28;20044;-69
2022/05/30 12:55:09;;;;;;;10.27;2.72;;;;;;;;;;5093155;28;20040;-70
2022/05/30 12:58:34;;;;;;;19.20;3.38;;;;;;;;;;5092981;28;20040;-68
2022/05/30 13:01:44;;;;;;;13.68;3.22;;;;;;;;;;5092754;28;20035;-67
2022/05/30 13:04:52;;;;;;;18.67;3.58;;;;;;;;;;5091871;28;20040;-67
2022/05/30 13:07:56;;;;;;;20.52;3.58;;;;;;;;;;5092651;28;20435;-66
2022/05/30 13:11:01;;;;;;;15.68;3.03;;;;;;;;;;5092803;28;20040;-68
2022/05/30 13:14:24;;;;;;;22.33;2.95;;;;;;;;;;5092690;28;20036;-68
2022/05/30 13:17:35;;;;;;;20.33;4.20;;;;;;;;;;5080303;28;20399;-68
2022/05/30 13:20:39;;;;;;;21.65;3.83;;;;;;;;;;5091614;28;20036;-67
2022/05/30 13:23:43;;;;;;;22.92;3.58;;;;;;;;;;5092656;28;20039;-69
2022/05/30 13:26:49;;;;;;;20.40;3.97;;;;;;;;;;5092463;28;20039;-67
2022/05/30 13:29:54;;;;;;;8.80;2.72;;;;;;;;;;5092438;28;20395;-67
2022/05/30 13:32:58;;;;;;;13.02;3.67;;;;;;;;;;5091628;28;20364;-68
2022/05/30 13:36:04;;;;;;;14.20;2.40;;;;;;;;;;5091756;28;20058;-67
2022/05/30 13:39:11;;;;;;;8.07;4.07;;;;;;;;;;5092266;28;20040;-67
2022/05/30 13:42:15;;;;;;;16.92;2.85;;;;;;;;;;5091405;28;20032;-67
2022/05/30 13:45:40;;;;;;;12.73;3.17;;;;;;;;;;5091585;28;20047;-67
2022/05/30 13:48:47;;;;;;;12.15;2.72;;;;;;;;;;5092163;28;20028;-67
2022/05/30 13:51:51;;;;;;;9.40;2.40;;;;;;;;;;5091757;28;20040;-68
2022/05/30 13:55:01;;;;;;;8.38;2.20;;;;;;;;;;5091980;28;20373;-67
2022/05/30 13:58:07;;;;;;;14.82;2.60;;;;;;;;;;5090823;28;20044;-69
2022/05/30 14:01:13;;;;;;;11.18;2.45;;;;;;;;;;5091684;28;20039;-69
2022/05/30 14:04:22;;;;;;;11.18;5.15;;;;;;;;;;5091813;28;20043;-69
2022/05/30 14:07:28;;;;;;;10.27;2.28;;;;;;;;;;5090203;28;20040;-71
2022/05/30 14:10:38;;;;;;;7.45;2.20;;;;;;;;;;5091645;28;20055;-69
2022/05/30 14:13:45;;;;;;;9.30;1.83;;;;;;;;;;5091631;28;20040;-68
2022/05/30 14:16:59;;;;;;;10.02;2.88;;;;;;;;;;5091307;28;20582;-68
2022/05/30 14:20:08;;;;;;;9.48;2.47;;;;;;;;;;5091472;28;20124;-69
2022/05/30 14:23:15;;;;;;;10.40;2.30;;;;;;;;;;5091466;28;20040;-68
2022/05/30 14:26:24;;;;;;;13.35;2.67;;;;;;;;;;5091276;28;20044;-68
2022/05/30 14:29:31;;;;;;;12.75;2.58;;;;;;;;;;5089912;28;20063;-67
2022/05/30 14:32:37;;;;;;;16.40;2.78;;;;;;;;;;5089921;28;20044;-68
2022/05/30 14:35:41;;;;;;;16.20;3.13;;;;;;;;;;5090579;28;20055;-67
2022/05/30 14:38:47;;;;;;;10.55;2.05;;;;;;;;;;5091112;28;20032;-68
2022/05/30 14:41:57;;;;;;;19.52;2.83;;;;;;;;;;5090915;28;20499;-67
2022/05/30 14:45:12;;;;;;;16.23;2.80;;;;;;;;;;5090819;28;20040;-68
2022/05/30 14:48:21;;;;;;;10.90;2.47;;;;;;;;;;5091261;28;20404;-69
2022/05/30 14:51:28;;;;;;;14.50;3.20;;;;;;;;;;5091098;28;20040;-69
2022/05/30 14:54:42;;;;;;;15.57;3.05;;;;;;;;;;5090531;28;20058;-68
2022/05/30 14:57:50;;;;;;;11.98;2.58;;;;;;;;;;5092567;28;20040;-67
2022/05/30 15:00:59;;;;;;;15.50;2.97;;;;;;;;;;5095216;28;20044;-68
2022/05/30 15:04:09;;;;;;;16.50;2.55;;;;;;;;;;5094827;28;20036;-68
2022/05/30 15:07:19;;;;;;;13.85;2.38;;;;;;;;;;5094865;28;20055;-67
2022/05/30 15:10:23;;;;;;;23.63;2.95;;;;;;;;;;5095229;28;20047;-68
2022/05/30 15:13:27;;;;;;;13.70;4.28;;;;;;;;;;5094867;28;20655;-67
2022/05/30 15:16:32;;;;;;;13.95;3.13;;;;;;;;;;5094455;28;20400;-69
2022/05/30 15:19:37;;;;;;;12.07;3.20;;;;;;;;;;5094108;28;20047;-68
2022/05/30 15:22:41;;;;;;;20.63;3.38;;;;;;;;;;5094565;28;20539;-67
2022/05/30 15:25:48;;;;;;;17.95;2.95;;;;;;;;;;5093726;28;20043;-67
2022/05/30 15:28:52;;;;;;;14.57;2.70;;;;;;;;;;5094254;28;20035;-66
2022/05/30 15:32:05;;;;;;;12.60;2.50;;;;;;;;;;5094500;28;20028;-66
2022/05/30 15:35:09;;;;;;;10.65;2.90;;;;;;;;;;5094440;28;20043;-68
2022/05/30 15:38:14;;;;;;;16.50;3.45;;;;;;;;;;5094546;28;20377;-69
2022/05/30 15:41:19;;;;;;;14.82;2.95;;;;;;;;;;5094493;28;20040;-66
2022/05/30 15:44:24;;;;;;;15.57;3.70;;;;;;;;;;5094081;28;20060;-66
2022/05/30 15:47:29;;;;;;;16.42;2.63;;;;;;;;;;5094008;28;20029;-67
2022/05/30 15:50:37;;;;;;;9.68;2.42;;;;;;;;;;5094234;28;20044;-69
2022/05/30 15:57:19;;;;;;;27.80;3.72;;;;;;;;;;5093909;28;20052;-69
2022/05/30 16:00:24;;;;;;;14.73;2.53;;;;;;;;;;5094318;28;20051;-67
2022/05/30 16:03:28;;;;;;;12.85;2.65;;;;;;;;;;5093859;28;20032;-68
2022/05/30 16:06:33;;;;;;;12.90;2.63;;;;;;;;;;5093698;28;20057;-67
2022/05/30 16:09:39;;;;;;;19.73;4.25;;;;;;;;;;5092800;28;20040;-68
2022/05/30 16:12:45;;;;;;;10.05;2.50;;;;;;;;;;5093677;28;20036;-66
2022/05/30 16:15:52;;;;;;;15.82;3.10;;;;;;;;;;5093315;28;20048;-69
2022/05/30 16:18:57;;;;;;;7.70;2.63;;;;;;;;;;5092998;28;20495;-67
2022/05/30 16:22:02;;;;;;;11.50;2.72;;;;;;;;;;5092628;28;20044;-67
2022/05/30 16:25:09;;;;;;;16.70;2.78;;;;;;;;;;5093519;28;20043;-68
2022/05/30 16:28:14;;;;;;;14.38;2.97;;;;;;;;;;5093371;28;20054;-67
2022/05/30 16:31:18;;;;;;;10.80;2.78;;;;;;;;;;5093328;28;20625;-66
2022/05/30 16:34:23;;;;;;;13.10;2.65;;;;;;;;;;5093215;28;20040;-66
2022/05/30 16:37:28;;;;;;;11.75;2.83;;;;;;;;;;5092454;28;20059;-67
2022/05/30 16:40:33;;;;;;;7.20;2.58;;;;;;;;;;5092969;28;20040;-69
2022/05/30 16:43:38;;;;;;;19.77;3.05;;;;;;;;;;5091986;28;20048;-67
2022/05/30 16:46:43;;;;;;;8.88;2.22;;;;;;;;;;5092716;28;20036;-67
2022/05/30 16:49:48;;;;;;;15.10;3.38;;;;;;;;;;5092940;28;20678;-67
2022/05/30 16:52:52;;;;;;;12.23;3.10;;;;;;;;;;5092788;28;20040;-66
2022/05/30 16:55:57;;;;;;;19.77;3.38;;;;;;;;;;5091934;28;20047;-66
2022/05/30 16:59:02;;;;;;;19.33;6.03;;;;;;;;;;5090767;28;20040;-67
2022/05/30 17:02:06;;;;;;;14.27;3.88;;;;;;;;;;5092588;28;20047;-67
2022/05/30 17:05:10;;;;;;;17.30;4.13;;;;;;;;;;5092301;28;20042;-66
2022/05/30 17:08:15;;;;;;;11.27;3.35;;;;;;;;;;5092390;28;20035;-66
2022/05/30 17:11:20;;;;;;;15.85;3.63;;;;;;;;;;5092725;28;20546;-66
2022/05/30 17:14:24;;;;;;;12.73;3.53;;;;;;;;;;5092276;28;20040;-67
2022/05/30 17:17:28;;;;;;;68.03;8.57;;;;;;;;;;5091965;28;20059;-66
2022/05/30 17:20:34;;;;;;;24.05;4.82;;;;;;;;;;5092302;28;20055;-66
2022/05/30 17:23:43;;;;;;;23.02;3.92;;;;;;;;;;5092099;28;20056;-64
2022/05/30 17:30:15;;;;;;;29.02;4.45;;;;;;;;;;5092274;28;20048;-66
2022/05/30 17:33:20;;;;;;;24.60;4.95;;;;;;;;;;5091974;28;20039;-66
2022/05/30 17:36:25;;;;;;;27.00;4.45;;;;;;;;;;5091860;28;20064;-66
2022/05/30 17:39:29;;;;;;;24.77;4.57;;;;;;;;;;5092274;28;20036;-65
2022/05/30 17:42:36;;;;;;;29.33;4.68;;;;;;;;;;5092060;28;20040;-66
2022/05/30 17:45:50;;;;;;;21.23;4.15;;;;;;;;;;5091842;28;20078;-66
2022/05/30 17:48:57;;;;;;;20.80;4.22;;;;;;;;;;5091844;28;20056;-66
2022/05/30 17:52:14;;;;;;;24.80;5.82;;;;;;;;;;5091999;28;20040;-66
2022/05/30 17:55:19;;;;;;;20.17;4.30;;;;;;;;;;5091147;28;20048;-66
2022/05/30 17:58:23;;;;;;;20.95;5.80;;;;;;;;;;5091518;28;20043;-66
2022/05/30 18:01:28;;;;;;;22.35;4.85;;;;;;;;;;5091725;28;20050;-66
2022/05/30 18:04:32;;;;;;;30.40;6.20;;;;;;;;;;5091655;28;20052;-66
2022/05/30 18:07:45;;;;;;;23.33;5.45;;;;;;;;;;5090366;28;20040;-66
2022/05/30 18:10:52;;;;;;;33.22;5.25;;;;;;;;;;5090565;28;20051;-66
2022/05/30 18:14:26;;;;;;;24.02;5.53;;;;;;;;;;5090772;28;20051;-66
2022/05/30 18:17:40;;;;;;;17.10;4.22;;;;;;;;;;5090420;28;20040;-66
2022/05/30 18:20:44;;;;;;;30.75;4.97;;;;;;;;;;5091543;28;20669;-66
2022/05/30 18:23:56;;;;;;;25.55;4.50;;;;;;;;;;5091575;28;20493;-66
2022/05/30 18:27:01;;;;;;;33.67;6.70;;;;;;;;;;5091475;28;20040;-65
2022/05/30 18:30:05;;;;;;;26.73;4.80;;;;;;;;;;5091636;28;20047;-66
2022/05/30 18:33:16;;;;;;;19.13;4.75;;;;;;;;;;5091270;28;20045;-66
2022/05/30 18:36:44;;;;;;;20.73;4.63;;;;;;;;;;5091269;28;20059;-66
2022/05/30 18:40:09;;;;;;;17.63;4.43;;;;;;;;;;5091532;28;20040;-66
2022/05/30 18:43:17;;;;;;;19.70;4.32;;;;;;;;;;5091063;28;20088;-65
2022/05/30 18:46:27;;;;;;;21.80;5.05;;;;;;;;;;5091426;28;20036;-66
2022/05/30 18:49:40;;;;;;;16.50;4.97;;;;;;;;;;5091503;28;20047;-65
2022/05/30 18:52:44;;;;;;;28.33;5.07;;;;;;;;;;5090687;28;20054;-66
2022/05/30 18:55:50;;;;;;;30.73;5.03;;;;;;;;;;5090949;28;20046;-66
2022/05/30 18:59:04;;;;;;;29.70;6.15;;;;;;;;;;5093958;28;20048;-66
2022/05/30 19:02:10;;;;;;;27.45;5.00;;;;;;;;;;5091232;28;20035;-65
2022/05/30 19:05:17;;;;;;;25.65;5.20;;;;;;;;;;5090198;28;20050;-65
2022/05/30 19:08:21;;;;;;;23.35;4.88;;;;;;;;;;5091450;28;20036;-65
2022/05/30 19:11:29;;;;;;;30.00;5.38;;;;;;;;;;5091101;28;20034;-67
2022/05/30 19:14:33;;;;;;;19.73;4.38;;;;;;;;;;5089526;28;20044;-66
2022/05/30 19:17:40;;;;;;;24.05;5.53;;;;;;;;;;5090908;28;20056;-67